createdAt,value
2022-12-15T00:01:45.647Z,5.80
2022-12-15T00:04:37.823Z,5.73
2022-12-15T00:07:23.522Z,6.33
2022-12-15T00:10:16.957Z,5.40
2022-12-15T00:13:02.846Z,5.47
2022-12-15T00:15:54.924Z,5.77
2022-12-15T00:18:47.431Z,6.23
2022-12-15T00:21:39.823Z,5.70
2022-12-15T00:24:25.670Z,5.47
2022-12-15T00:27:17.939Z,6.97
2022-12-15T00:30:10.906Z,6.63
2022-12-15T00:32:56.895Z,7.37
2022-12-15T00:35:48.807Z,8.00
2022-12-15T00:38:35.088Z,7.37
2022-12-15T00:41:08.899Z,7.23
2022-12-15T00:43:36.973Z,8.07
2022-12-15T00:46:29.952Z,7.80
2022-12-15T00:48:57.597Z,7.60
2022-12-15T00:51:50.753Z,7.47
2022-12-15T00:54:36.710Z,7.57
2022-12-15T00:57:28.799Z,8.43
2022-12-15T01:00:14.955Z,8.20
2022-12-15T01:03:08.002Z,7.30
2022-12-15T01:05:54.380Z,8.40
2022-12-15T01:08:46.786Z,7.00
2022-12-15T01:11:32.846Z,9.10
2022-12-15T01:14:24.911Z,8.53
2022-12-15T01:17:29.744Z,9.57
2022-12-15T01:20:24.830Z,9.87
2022-12-15T01:22:53.336Z,9.13
2022-12-15T01:25:27.986Z,9.33
2022-12-15T01:27:55.346Z,8.33
2022-12-15T01:30:23.685Z,9.60
2022-12-15T01:32:57.843Z,10.23
2022-12-15T01:35:27.595Z,9.77
2022-12-15T01:38:00.847Z,9.60
2022-12-15T01:40:46.553Z,9.03
2022-12-15T01:43:19.954Z,8.40
2022-12-15T01:45:56.207Z,8.30
2022-12-15T01:48:34.008Z,7.97
2022-12-15T01:51:21.383Z,8.20
2022-12-15T01:53:58.063Z,8.43
2022-12-15T01:56:26.810Z,6.83
2022-12-15T01:58:55.653Z,9.93
2022-12-15T02:01:29.940Z,9.47
2022-12-15T02:03:57.227Z,10.73
2022-12-15T02:06:33.015Z,10.40
2022-12-15T02:09:01.446Z,10.67
2022-12-15T02:11:54.958Z,11.10
2022-12-15T02:14:44.800Z,10.17
2022-12-15T02:17:29.890Z,10.10
2022-12-15T02:20:12.844Z,9.80
2022-12-15T02:22:49.981Z,9.43
2022-12-15T02:25:45.135Z,9.45
2022-12-15T02:28:50.866Z,9.23
2022-12-15T02:31:40.403Z,8.37
2022-12-15T02:34:21.845Z,9.10
2022-12-15T02:36:50.557Z,8.37
2022-12-15T02:39:26.045Z,8.20
2022-12-15T02:41:53.272Z,8.27
2022-12-15T02:44:35.842Z,8.87
2022-12-15T02:47:34.778Z,8.63
2022-12-15T02:50:08.864Z,8.40
2022-12-15T02:52:51.773Z,9.03
2022-12-15T02:55:23.392Z,9.60
2022-12-15T02:58:09.772Z,9.20
2022-12-15T03:00:40.555Z,9.60
2022-12-15T03:03:14.822Z,8.67
2022-12-15T03:05:42.329Z,10.17
2022-12-15T03:08:15.907Z,9.97
2022-12-15T03:10:43.006Z,10.13
2022-12-15T03:13:10.296Z,9.33
2022-12-15T03:15:43.802Z,8.93
2022-12-15T03:18:31.003Z,8.93
2022-12-15T03:20:58.089Z,7.47
2022-12-15T03:23:25.344Z,9.80
2022-12-15T03:25:58.850Z,9.33
2022-12-15T03:28:25.992Z,9.33
2022-12-15T03:30:59.982Z,9.13
2022-12-15T03:33:27.127Z,9.77
2022-12-15T03:35:54.381Z,8.37
2022-12-15T03:38:27.888Z,9.23
2022-12-15T03:40:54.965Z,8.53
2022-12-15T03:43:29.240Z,8.47
2022-12-15T03:45:56.701Z,9.03
2022-12-15T03:48:23.863Z,8.83
2022-12-15T03:50:57.942Z,8.17
2022-12-15T03:53:25.075Z,8.53
2022-12-15T03:55:58.991Z,8.57
2022-12-15T03:58:26.167Z,9.10
2022-12-15T04:00:53.351Z,8.37
2022-12-15T04:03:28.097Z,9.40
2022-12-15T04:05:55.490Z,9.00
2022-12-15T04:08:32.925Z,9.73
2022-12-15T04:13:34.459Z,8.30
2022-12-15T04:16:04.866Z,7.93
2022-12-15T04:18:44.977Z,8.03
2022-12-15T04:21:12.390Z,8.40
2022-12-15T04:23:39.551Z,8.77
2022-12-15T04:26:31.933Z,8.73
2022-12-15T04:29:17.714Z,8.93
2022-12-15T04:32:09.974Z,8.87
2022-12-15T04:34:55.746Z,10.13
2022-12-15T04:37:47.938Z,9.60
2022-12-15T04:40:33.727Z,9.93
2022-12-15T04:43:25.854Z,9.17
2022-12-15T04:46:11.764Z,10.37
2022-12-15T04:49:04.022Z,9.47
2022-12-15T04:51:49.776Z,7.83
2022-12-15T04:54:41.939Z,8.63
2022-12-15T04:57:27.583Z,9.67
2022-12-15T05:00:19.838Z,8.30
2022-12-15T05:03:05.687Z,9.00
2022-12-15T05:05:57.854Z,8.27
2022-12-15T05:08:43.518Z,8.40
2022-12-15T05:11:36.046Z,9.13
2022-12-15T05:14:21.716Z,8.67
2022-12-15T05:17:13.947Z,9.60
2022-12-15T05:20:06.688Z,9.67
2022-12-15T05:22:58.854Z,9.13
2022-12-15T05:26:12.015Z,9.30
2022-12-15T05:28:58.174Z,8.87
2022-12-15T05:31:50.938Z,9.57
2022-12-15T05:34:20.010Z,9.30
2022-12-15T05:36:47.177Z,8.37
2022-12-15T05:39:20.842Z,8.97
2022-12-15T05:41:48.001Z,8.87
2022-12-15T05:44:21.876Z,9.03
2022-12-15T05:46:49.204Z,8.77
2022-12-15T05:49:23.950Z,9.60
2022-12-15T05:51:51.105Z,8.83
2022-12-15T05:54:19.581Z,9.37
2022-12-15T05:56:53.920Z,8.80
2022-12-15T05:59:21.093Z,9.50
2022-12-15T06:01:48.265Z,9.50
2022-12-15T06:04:22.021Z,8.90
2022-12-15T06:06:49.166Z,10.10
2022-12-15T06:09:22.999Z,8.47
2022-12-15T06:11:50.123Z,8.40
2022-12-15T06:14:17.267Z,7.47
2022-12-15T06:16:51.752Z,8.97
2022-12-15T06:19:38.784Z,7.33
2022-12-15T06:22:13.075Z,7.70
2022-12-15T06:24:40.247Z,8.43
2022-12-15T06:27:07.345Z,9.10
2022-12-15T06:29:40.882Z,8.73
2022-12-15T06:32:14.935Z,8.50
2022-12-15T06:34:42.243Z,8.80
2022-12-15T06:37:09.341Z,8.27
2022-12-15T06:39:42.789Z,8.67
2022-12-15T06:42:10.013Z,7.70
2022-12-15T06:44:43.962Z,8.53
2022-12-15T06:47:11.302Z,8.03
2022-12-15T06:49:38.425Z,7.47
2022-12-15T06:52:11.879Z,8.63
2022-12-15T06:54:39.300Z,8.53
2022-12-15T06:57:12.785Z,7.43
2022-12-15T06:59:40.827Z,7.83
2022-12-15T07:02:28.698Z,8.00
2022-12-15T07:04:56.603Z,8.53
2022-12-15T07:07:29.807Z,8.20
2022-12-15T07:09:56.891Z,7.73
2022-12-15T07:12:38.037Z,9.03
2022-12-15T07:15:05.329Z,7.80
2022-12-15T07:17:45.999Z,8.67
2022-12-15T07:20:22.885Z,10.03
2022-12-15T07:23:00.854Z,8.13
2022-12-15T07:25:34.911Z,8.03
2022-12-15T07:28:02.232Z,9.07
2022-12-15T07:30:33.594Z,8.57
2022-12-15T07:33:10.866Z,7.80
2022-12-15T07:35:38.154Z,7.80
2022-12-15T07:38:16.090Z,8.13
2022-12-15T07:40:43.165Z,7.60
2022-12-15T07:43:10.445Z,7.17
2022-12-15T07:45:49.721Z,8.70
2022-12-15T07:48:18.554Z,8.23
2022-12-15T07:50:52.915Z,9.13
2022-12-15T07:53:20.267Z,8.13
2022-12-15T07:56:07.559Z,8.30
2022-12-15T07:58:36.009Z,8.70
2022-12-15T08:01:11.086Z,8.60
2022-12-15T08:03:39.440Z,7.60
2022-12-15T08:06:07.666Z,7.50
2022-12-15T08:08:40.903Z,7.73
2022-12-15T08:11:19.828Z,9.07
2022-12-15T08:14:03.959Z,7.40
2022-12-15T08:16:40.858Z,8.20
2022-12-15T08:19:18.271Z,8.33
2022-12-15T08:24:29.074Z,6.90
2022-12-15T08:27:03.014Z,7.43
2022-12-15T08:29:50.502Z,7.90
2022-12-15T08:32:23.867Z,7.05
2022-12-15T08:34:57.885Z,8.20
2022-12-15T08:37:25.056Z,8.63
2022-12-15T08:39:59.056Z,8.27
2022-12-15T08:42:26.159Z,7.90
2022-12-15T08:44:53.396Z,7.83
2022-12-15T08:47:26.884Z,8.03
2022-12-15T08:49:54.558Z,8.80
2022-12-15T08:52:29.026Z,9.93
2022-12-15T08:54:56.117Z,8.27
2022-12-15T08:57:23.425Z,8.60
2022-12-15T08:59:56.926Z,8.63
2022-12-15T09:02:24.166Z,8.53
2022-12-15T09:04:57.875Z,7.87
2022-12-15T09:07:24.940Z,10.10
2022-12-15T09:09:59.041Z,10.53
2022-12-15T09:12:26.611Z,9.83
2022-12-15T09:14:53.681Z,13.10
2022-12-15T09:17:26.975Z,9.53
2022-12-15T09:20:00.877Z,9.13
2022-12-15T09:22:34.985Z,8.87
2022-12-15T09:25:02.216Z,9.77
2022-12-15T09:27:37.022Z,10.10
2022-12-15T09:30:04.254Z,10.93
2022-12-15T09:32:32.171Z,12.97
2022-12-15T09:35:05.982Z,13.80
2022-12-15T09:37:33.254Z,12.03
2022-12-15T09:40:06.897Z,11.80
2022-12-15T09:42:33.990Z,12.90
2022-12-15T09:45:23.036Z,15.17
2022-12-15T09:48:01.437Z,13.03
2022-12-15T09:50:55.877Z,19.47
2022-12-15T09:53:53.642Z,17.40
2022-12-15T09:56:28.894Z,17.07
2022-12-15T09:58:58.792Z,14.93
2022-12-15T10:01:40.034Z,15.40
2022-12-15T10:04:07.381Z,15.17
2022-12-15T10:06:44.916Z,13.40
2022-12-15T10:09:29.456Z,11.43
2022-12-15T10:12:22.959Z,11.70
2022-12-15T10:14:55.986Z,11.10
2022-12-15T10:17:35.200Z,11.93
2022-12-15T10:20:15.972Z,10.20
2022-12-15T10:22:50.431Z,10.47
2022-12-15T10:25:30.623Z,10.07
2022-12-15T10:28:08.083Z,9.60
2022-12-15T10:30:35.796Z,10.80
2022-12-15T10:33:28.467Z,9.23
2022-12-15T10:35:56.375Z,10.10
2022-12-15T10:38:39.017Z,9.37
2022-12-15T10:41:08.326Z,10.20
2022-12-15T10:43:37.409Z,11.80
2022-12-15T10:46:32.030Z,12.87
2022-12-15T10:49:28.821Z,14.10
2022-12-15T10:52:01.153Z,12.57
2022-12-15T10:54:36.826Z,12.57
2022-12-15T10:57:18.178Z,10.63
2022-12-15T10:59:51.833Z,10.27
2022-12-15T11:02:24.705Z,9.77
2022-12-15T11:05:02.986Z,9.73
2022-12-15T11:07:41.164Z,10.10
2022-12-15T11:10:20.963Z,9.67
2022-12-15T11:12:58.710Z,9.70
2022-12-15T11:15:38.896Z,9.50
2022-12-15T11:18:12.979Z,9.53
2022-12-15T11:20:52.910Z,8.87
2022-12-15T11:23:48.775Z,9.37
2022-12-15T11:26:23.665Z,9.53
2022-12-15T11:29:04.017Z,9.07
2022-12-15T11:31:42.397Z,10.13
2022-12-15T11:34:26.899Z,9.97
2022-12-15T11:37:12.968Z,9.33
2022-12-15T11:39:49.965Z,17.90
2022-12-15T11:42:45.983Z,19.67
2022-12-15T11:45:25.159Z,13.13
2022-12-15T11:47:58.867Z,11.67
2022-12-15T11:50:31.626Z,10.13
2022-12-15T11:53:14.003Z,10.10
2022-12-15T11:55:48.180Z,10.77
2022-12-15T11:58:27.853Z,10.07
2022-12-15T12:01:20.949Z,10.97
2022-12-15T12:04:00.976Z,10.93
2022-12-15T12:06:48.493Z,10.83
2022-12-15T12:09:30.969Z,11.85
2022-12-15T12:12:33.865Z,11.17
2022-12-15T12:15:30.830Z,11.80
2022-12-15T12:18:21.974Z,10.63
2022-12-15T12:21:01.835Z,9.87
2022-12-15T12:23:52.608Z,9.30
2022-12-15T12:26:45.239Z,8.80
2022-12-15T12:29:15.963Z,11.40
2022-12-15T12:32:05.510Z,11.07
2022-12-15T12:34:51.773Z,10.03
2022-12-15T12:37:33.838Z,10.57
2022-12-15T12:40:15.721Z,10.13
2022-12-15T12:42:53.852Z,9.50
2022-12-15T12:45:22.610Z,10.40
2022-12-15T12:47:58.841Z,11.13
2022-12-15T12:50:28.077Z,10.60
2022-12-15T12:53:02.847Z,10.47
2022-12-15T12:55:39.849Z,10.23
2022-12-15T12:58:36.842Z,10.95
2022-12-15T13:01:16.946Z,10.37
2022-12-15T13:03:50.825Z,11.87
2022-12-15T13:06:36.643Z,12.77
2022-12-15T13:09:28.834Z,11.93
2022-12-15T13:11:58.200Z,11.67
2022-12-15T13:14:35.829Z,10.77
2022-12-15T13:20:05.968Z,11.13
2022-12-15T13:22:37.068Z,10.73
2022-12-15T13:25:37.843Z,10.77
2022-12-15T13:28:18.721Z,11.10
2022-12-15T13:31:11.148Z,11.10
2022-12-15T13:33:50.754Z,10.30
2022-12-15T13:36:42.836Z,10.67
2022-12-15T13:39:13.220Z,11.17
2022-12-15T13:44:46.740Z,10.03
2022-12-15T13:47:23.831Z,10.73
2022-12-15T13:50:02.278Z,10.40
2022-12-15T13:53:17.094Z,10.87
2022-12-15T13:55:33.172Z,11.73
2022-12-15T13:58:12.881Z,12.17
2022-12-15T14:00:40.286Z,12.27
2022-12-15T14:03:11.152Z,11.10
2022-12-15T14:05:45.911Z,11.73
2022-12-15T14:08:21.840Z,11.30
2022-12-15T14:10:57.909Z,11.90
2022-12-15T14:13:33.292Z,11.53
2022-12-15T14:16:10.220Z,11.50
2022-12-15T14:18:57.860Z,11.30
2022-12-15T14:21:33.936Z,11.40
2022-12-15T14:24:36.950Z,11.20
2022-12-15T14:26:55.944Z,10.77
2022-12-15T14:29:23.202Z,10.13
2022-12-15T14:31:59.010Z,9.53
2022-12-15T14:34:39.451Z,10.77
2022-12-15T14:37:16.023Z,10.77
2022-12-15T14:39:45.303Z,10.10
2022-12-15T14:42:24.944Z,11.33
2022-12-15T14:44:56.360Z,10.00
2022-12-15T14:47:35.964Z,10.50
2022-12-15T14:50:05.099Z,12.00
2022-12-15T14:52:41.044Z,10.67
2022-12-15T14:55:26.680Z,10.67
2022-12-15T14:58:01.039Z,11.00
2022-12-15T15:00:34.367Z,10.83
2022-12-15T15:03:26.176Z,10.50
2022-12-15T15:05:58.718Z,11.57
2022-12-15T15:08:33.585Z,11.83
2022-12-15T15:11:02.699Z,12.70
2022-12-15T15:13:44.061Z,11.13
2022-12-15T15:16:18.454Z,11.73
2022-12-15T15:19:00.081Z,12.23
2022-12-15T15:21:29.140Z,11.40
2022-12-15T15:24:10.063Z,9.63
2022-12-15T15:26:37.535Z,10.50
2022-12-15T15:29:05.449Z,10.63
2022-12-15T15:31:43.064Z,10.23
2022-12-15T15:34:11.338Z,8.90
2022-12-15T15:36:46.189Z,9.60
2022-12-15T15:39:15.551Z,9.87
2022-12-15T15:41:42.711Z,10.37
2022-12-15T15:44:20.043Z,8.57
2022-12-15T15:46:48.475Z,9.68
2022-12-15T15:49:17.491Z,9.77
2022-12-15T15:51:50.985Z,9.33
2022-12-15T15:54:27.862Z,10.27
2022-12-15T15:56:55.016Z,7.85
2022-12-15T15:59:32.004Z,9.87
2022-12-15T16:01:59.859Z,8.80
2022-12-15T16:04:27.569Z,8.83
2022-12-15T16:07:01.070Z,9.10
2022-12-15T16:09:28.229Z,10.10
2022-12-15T16:11:55.707Z,10.27
2022-12-15T16:14:29.033Z,9.77
2022-12-15T16:17:02.877Z,9.63
2022-12-15T16:19:39.749Z,9.37
2022-12-15T16:22:28.012Z,9.35
2022-12-15T16:27:23.711Z,10.47
2022-12-15T16:29:56.935Z,10.23
2022-12-15T16:32:24.097Z,11.63
2022-12-15T16:34:58.014Z,10.93
2022-12-15T16:37:28.925Z,13.17
2022-12-15T16:39:56.166Z,13.87
2022-12-15T16:42:30.328Z,10.77
2022-12-15T16:44:57.468Z,12.50
2022-12-15T16:47:24.580Z,14.70
2022-12-15T16:49:58.023Z,14.30
2022-12-15T16:52:25.207Z,13.00
2022-12-15T16:54:58.928Z,12.33
2022-12-15T16:57:26.019Z,13.97
2022-12-15T17:00:00.117Z,14.40
2022-12-15T17:02:28.937Z,13.20
2022-12-15T17:04:56.415Z,14.60
2022-12-15T17:07:30.935Z,13.87
2022-12-15T17:09:58.118Z,12.83
2022-12-15T17:12:25.388Z,12.37
2022-12-15T17:14:59.032Z,12.23
2022-12-15T17:17:26.796Z,11.27
2022-12-15T17:22:56.449Z,12.53
2022-12-15T17:26:09.350Z,12.80
2022-12-15T17:28:22.018Z,11.83
2022-12-15T17:30:57.105Z,12.37
2022-12-15T17:33:29.077Z,12.80
2022-12-15T17:36:11.042Z,13.50
2022-12-15T17:38:38.250Z,12.30
2022-12-15T17:41:05.389Z,13.60
2022-12-15T17:43:39.430Z,14.33
2022-12-15T17:46:07.081Z,12.30
2022-12-15T17:48:34.497Z,13.33
2022-12-15T17:51:08.010Z,12.73
2022-12-15T17:53:42.808Z,13.40
2022-12-15T17:56:25.094Z,13.47
2022-12-15T17:58:52.258Z,13.03
2022-12-15T18:01:19.474Z,12.13
2022-12-15T18:03:53.078Z,12.87
2022-12-15T18:06:26.864Z,12.37
2022-12-15T18:09:00.915Z,12.17
2022-12-15T18:11:35.009Z,11.50
2022-12-15T18:14:02.253Z,12.13
2022-12-15T18:16:29.449Z,13.33
2022-12-15T18:19:02.868Z,14.37
2022-12-15T18:21:30.097Z,13.40
2022-12-15T18:24:03.998Z,14.00
2022-12-15T18:26:37.881Z,15.77
2022-12-15T18:29:18.985Z,11.83
2022-12-15T18:31:48.325Z,12.77
2022-12-15T18:34:27.897Z,12.43
2022-12-15T18:36:55.035Z,16.50
2022-12-15T18:39:25.231Z,13.87
2022-12-15T18:42:01.031Z,14.77
2022-12-15T18:44:28.891Z,18.97
2022-12-15T18:47:02.976Z,11.83
2022-12-15T18:49:30.219Z,11.60
2022-12-15T18:51:57.344Z,12.30
2022-12-15T18:54:32.914Z,12.37
2022-12-15T18:57:00.098Z,12.53
2022-12-15T18:59:33.962Z,10.77
2022-12-15T19:02:01.322Z,11.57
2022-12-15T19:04:28.529Z,10.83
2022-12-15T19:07:02.004Z,9.57
2022-12-15T19:09:29.565Z,12.30
2022-12-15T19:12:21.941Z,9.97
2022-12-15T19:14:50.460Z,10.57
2022-12-15T19:17:44.066Z,11.70
2022-12-15T19:20:50.981Z,10.67
2022-12-15T19:23:25.026Z,9.73
2022-12-15T19:25:52.640Z,10.00
2022-12-15T19:28:27.941Z,9.87
2022-12-15T19:30:55.308Z,10.30
2022-12-15T19:33:29.538Z,10.00
2022-12-15T19:35:57.480Z,9.77
2022-12-15T19:38:26.135Z,10.67
2022-12-15T19:41:00.932Z,10.53
2022-12-15T19:43:28.336Z,10.73
2022-12-15T19:46:01.992Z,10.83
2022-12-15T19:48:29.260Z,10.73
2022-12-15T19:51:03.149Z,10.10
2022-12-15T19:53:31.402Z,9.87
2022-12-15T19:55:59.889Z,9.97
2022-12-15T19:58:37.147Z,11.07
2022-12-15T20:03:32.081Z,6.47
2022-12-15T20:06:06.948Z,9.20
2022-12-15T20:08:36.702Z,8.27
2022-12-15T20:11:09.929Z,7.87
2022-12-15T20:13:37.428Z,8.73
2022-12-15T20:16:11.130Z,8.63
2022-12-15T20:18:38.421Z,9.37
2022-12-15T20:21:22.329Z,9.37
2022-12-15T20:24:02.101Z,10.53
2022-12-15T20:26:36.946Z,10.13
2022-12-15T20:29:11.045Z,9.73
2022-12-15T20:31:38.304Z,8.23
2022-12-15T20:34:05.583Z,7.43
2022-12-15T20:36:39.950Z,8.03
2022-12-15T20:39:13.169Z,7.50
2022-12-15T20:41:47.220Z,7.17
2022-12-15T20:44:14.499Z,7.67
2022-12-15T20:46:41.723Z,6.83
2022-12-15T20:49:23.079Z,6.30
2022-12-15T20:51:50.915Z,7.53
2022-12-15T20:54:27.088Z,6.43
2022-12-15T20:56:54.162Z,8.57
2022-12-15T20:59:28.003Z,7.17
2022-12-15T21:01:55.375Z,7.43
2022-12-15T21:04:24.889Z,9.17
2022-12-15T21:06:59.046Z,6.67
2022-12-15T21:09:26.305Z,6.67
2022-12-15T21:12:05.867Z,6.97
2022-12-15T21:14:36.206Z,6.37
2022-12-15T21:17:10.129Z,6.63
2022-12-15T21:19:43.967Z,6.67
2022-12-15T21:22:26.070Z,8.27
2022-12-15T21:25:03.886Z,7.37
2022-12-15T21:27:37.948Z,7.00
2022-12-15T21:30:20.881Z,6.80
2022-12-15T21:32:54.980Z,6.83
2022-12-15T21:35:31.906Z,7.67
2022-12-15T21:37:59.392Z,7.10
2022-12-15T21:40:28.760Z,6.20
2022-12-15T21:43:03.038Z,7.00
2022-12-15T21:45:30.249Z,6.70
2022-12-15T21:48:23.067Z,6.13
2022-12-15T21:50:50.322Z,6.77
2022-12-15T21:53:18.861Z,6.17
2022-12-15T21:55:53.970Z,6.90
2022-12-15T21:58:24.092Z,5.60
2022-12-15T22:00:58.132Z,5.67
2022-12-15T22:03:25.389Z,6.27
2022-12-15T22:05:59.019Z,7.53
2022-12-15T22:08:26.268Z,6.93
2022-12-15T22:11:00.075Z,7.40
2022-12-15T22:13:27.227Z,6.27
2022-12-15T22:15:54.694Z,5.60
2022-12-15T22:18:29.245Z,5.27
2022-12-15T22:21:10.019Z,6.10
2022-12-15T22:23:43.907Z,7.37
2022-12-15T22:26:29.923Z,7.57
2022-12-15T22:29:04.004Z,6.37
2022-12-15T22:31:31.282Z,6.07
2022-12-15T22:33:58.399Z,6.17
2022-12-15T22:36:31.976Z,5.73
2022-12-15T22:39:02.955Z,5.97
2022-12-15T22:41:40.203Z,6.73
2022-12-15T22:44:13.995Z,7.07
2022-12-15T22:46:48.102Z,6.80
2022-12-15T22:49:37.590Z,6.63
2022-12-15T22:52:20.232Z,5.80
2022-12-15T22:54:47.910Z,5.70
2022-12-15T22:57:29.085Z,6.23
2022-12-15T23:00:00.520Z,6.77
2022-12-15T23:02:36.139Z,6.80
2022-12-15T23:05:03.833Z,7.73
2022-12-15T23:07:30.910Z,6.60
2022-12-15T23:10:22.979Z,6.67
2022-12-15T23:12:54.357Z,6.00
2022-12-15T23:15:48.029Z,6.30
2022-12-15T23:18:15.338Z,6.97
2022-12-15T23:20:49.168Z,6.67
2022-12-15T23:23:23.025Z,6.50
2022-12-15T23:25:57.087Z,5.80
2022-12-15T23:28:24.391Z,5.70
2022-12-15T23:30:52.205Z,6.53
2022-12-15T23:33:25.946Z,6.43
2022-12-15T23:35:54.877Z,6.10
2022-12-15T23:38:29.073Z,6.57
2022-12-15T23:40:57.307Z,7.50
2022-12-15T23:43:25.165Z,6.33
2022-12-15T23:46:03.983Z,7.13
2022-12-15T23:48:32.188Z,6.53
2022-12-15T23:51:16.084Z,6.57
2022-12-15T23:53:43.955Z,6.40
2022-12-15T23:56:27.961Z,6.40
2022-12-15T23:58:55.991Z,6.13
